Aviation Digital Data Service (ADDS)

Output produced by METARs form (2347 UTC 20 January 2019)
found at http://www.aviationweather.gov/metar/data/
 
Forecast for: VYYY (YANGON INTL MYAN, VN)
Text: TAF VYYY 202300Z 2100/2124 35006KT 7000 NSC
Forecast period: 0000 UTC 21 January 2019 to 0000 UTC 22 January 2019
Forecast type: FROM: standard forecast or significant change
Winds: from the N (350 degrees) at 7 MPH (6 knots; 3.1 m/s)
Visibility: 4 miles (7 km)
Ceiling: unknown
Clouds: missing
Weather: no significant weather forecast for this period
Text: BECMG 2100/2102 2000 MIFG
Forecast period: 0000 UTC 21 January 2019 to 0000 UTC 22 January 2019
Forecast type: BECOMING: Conditions expected to become as follows by 0200 UTC 21 January 2019
Winds: from the N (350 degrees) at 7 MPH (6 knots; 3.1 m/s)
Visibility: 1.24 miles (2.00 km)
Ceiling: unknown
Clouds: missing
Weather: MIFG  (shallow fog)
Text: TEMPO 2106/2112 29006KT 7000 SCT018 FEW025CB SCT110
Forecast period: 0600 to 1200 UTC 21 January 2019
Forecast type: TEMPORARY: The following changes expected for less than half the time period
Winds: from the WNW (290 degrees) at 7 MPH (6 knots; 3.1 m/s)
Visibility: 4 miles (7 km)
Ceiling: at least 12,000 feet AGL
Clouds: scattered clouds at 1800 feet AGL
few clouds at 2500 feet AGL
scattered clouds at 11000 feet AGL
Weather: no significant weather forecast for this period